petera380
Topic Author
Posts: 242
Joined: Tue Feb 08, 2005 12:35 am

Atlas Air B748 Possibly In Difficulty Above Seoul

Sun Jul 13, 2014 3:46 pm

Just notices that Atlas Air flight PO237, B747-8F, N858GT made two aborted landings at Incheon and is now headed south. Just wondering what was happening?
 
SpaceshipDC10
Posts: 4462
Joined: Tue Jan 01, 2013 11:44 am

RE: Atlas Air B748 Possibly In Difficulty Above Se

Sun Jul 13, 2014 3:52 pm

 
175erj
Posts: 134
Joined: Sun Mar 09, 2014 7:25 pm

RE: Atlas Air B748 Possibly In Difficulty Above Se

Sun Jul 13, 2014 3:52 pm

Low visibility/heavy fog.


RKSI 131530Z 21006KT 020V080 0200 R15L/0900D R15R/0700D R16/0125N FG VV001 22/21 Q1005 NOSIG
 
APYu
Posts: 380
Joined: Fri Sep 21, 2007 10:23 pm

RE: Atlas Air B748 Possibly In Difficulty Above Se

Sun Jul 13, 2014 4:02 pm

Sounds like a bad weather diversion then.
We'd like to welcome in particular our Executive Club members and those joining us from our Oneworld alliance partners.
 
747400sp
Posts: 3845
Joined: Sat Aug 09, 2003 7:27 pm

RE: Atlas Air B748 Possibly In Difficulty Above Se

Sun Jul 13, 2014 4:04 pm

Two 747s had trouble in one day.
 
migair54
Posts: 2118
Joined: Thu Jun 14, 2007 4:24 am

RE: Atlas Air B748 Possibly In Difficulty Above Se

Sun Jul 13, 2014 4:41 pm

Now it´s showing diverted to PVG. But it says PO958 B744.
 
User avatar
zeke
Posts: 9855
Joined: Thu Dec 14, 2006 1:42 pm

RE: Atlas Air B748 Possibly In Difficulty Above Se

Sun Jul 13, 2014 4:45 pm

Quoting 175erj (Reply 2):
Low visibility/heavy fog.


RKSI 131530Z 21006KT 020V080 0200 R15L/0900D R15R/0700D R16/0125N FG VV001 22/21 Q1005 NOSIG

That is not too bad for ICN, they have LVP there on all runways with autoland available.
We are addicted to our thoughts. We cannot change anything if we cannot change our thinking – Santosh Kalwar
 
User avatar
airbuseric
Posts: 3560
Joined: Sat Jan 22, 2005 1:24 am

RE: Atlas Air B748 Possibly In Difficulty Above Se

Tue Jul 15, 2014 6:02 pm

Quoting zeke (Reply 6):
That is not too bad for ICN, they have LVP there on all runways with autoland available.

Probably low-CAT flight crew then...
"The whole world steps aside for the man who knows where he is going"

Who is online

Users browsing this forum: No registered users and 9 guests